createdAt,value
2018-06-23T00:00:54.004Z,11.79
2018-06-23T00:03:29.593Z,11.83
2018-06-23T00:06:05.493Z,11.80
2018-06-23T00:08:40.981Z,11.67
2018-06-23T00:11:16.671Z,11.43
2018-06-23T00:13:52.391Z,11.31
2018-06-23T00:16:28.126Z,11.20
2018-06-23T00:19:03.721Z,11.03
2018-06-23T00:21:39.325Z,11.12
2018-06-23T00:24:14.683Z,11.18
2018-06-23T00:26:50.649Z,11.20
2018-06-23T00:29:26.903Z,11.12
2018-06-23T00:32:02.738Z,11.03
2018-06-23T00:34:38.599Z,11.03
2018-06-23T00:37:14.521Z,10.90
2018-06-23T00:39:50.105Z,10.85
2018-06-23T00:42:25.734Z,10.81
2018-06-23T00:45:01.314Z,10.64
2018-06-23T00:47:36.709Z,10.65
2018-06-23T00:50:12.285Z,10.69
2018-06-23T00:52:48.095Z,10.68
2018-06-23T00:55:23.866Z,10.57
2018-06-23T00:57:59.321Z,10.52
2018-06-23T01:00:34.968Z,10.56
2018-06-23T01:03:10.488Z,10.41
2018-06-23T01:05:45.918Z,10.40
2018-06-23T01:08:21.494Z,10.39
2018-06-23T01:10:56.958Z,10.46
2018-06-23T01:13:33.039Z,10.33
2018-06-23T01:16:09.034Z,10.32
2018-06-23T01:18:44.887Z,10.14
2018-06-23T01:21:20.414Z,10.07
2018-06-23T01:23:55.997Z,10.26
2018-06-23T01:26:31.737Z,10.22
2018-06-23T01:29:07.200Z,10.14
2018-06-23T01:31:42.716Z,10.01
2018-06-23T01:34:18.254Z,10.04
2018-06-23T01:36:54.034Z,10.02
2018-06-23T01:39:29.842Z,9.97
2018-06-23T01:42:05.508Z,9.75
2018-06-23T01:44:41.322Z,9.51
2018-06-23T01:47:16.934Z,9.32
2018-06-23T01:49:52.330Z,9.04
2018-06-23T01:52:28.100Z,8.90
2018-06-23T01:55:04.062Z,8.85
2018-06-23T01:57:39.637Z,9.10
2018-06-23T02:00:15.478Z,9.12
2018-06-23T02:02:51.226Z,8.91
2018-06-23T02:05:26.774Z,8.79
2018-06-23T02:08:02.400Z,8.90
2018-06-23T02:10:37.848Z,8.95
2018-06-23T02:13:13.605Z,8.89
2018-06-23T02:15:54.388Z,8.77
2018-06-23T02:18:35.042Z,8.83
2018-06-23T02:21:15.710Z,8.89
2018-06-23T02:23:56.265Z,8.89
2018-06-23T02:26:36.762Z,8.85
2018-06-23T02:29:17.518Z,8.89
2018-06-23T02:31:58.422Z,8.96
2018-06-23T02:34:39.063Z,8.89
2018-06-23T02:37:15.096Z,8.84
2018-06-23T02:39:50.938Z,8.86
2018-06-23T02:42:26.606Z,9.10
2018-06-23T02:45:02.596Z,9.32
2018-06-23T02:47:38.474Z,9.43
2018-06-23T02:50:14.242Z,9.45
2018-06-23T02:52:50.048Z,9.30
2018-06-23T02:55:25.668Z,9.26
2018-06-23T02:58:01.340Z,9.22
2018-06-23T03:00:37.046Z,9.33
2018-06-23T03:03:12.690Z,9.39
2018-06-23T03:05:48.118Z,9.43
2018-06-23T03:08:23.795Z,9.56
2018-06-23T03:10:59.278Z,9.66
2018-06-23T03:13:34.893Z,9.72
2018-06-23T03:16:10.544Z,9.75
2018-06-23T03:18:46.175Z,9.77
2018-06-23T03:21:21.526Z,9.85
2018-06-23T03:23:57.006Z,9.85
2018-06-23T03:26:32.479Z,9.86
2018-06-23T03:29:08.370Z,9.89
2018-06-23T03:31:44.016Z,9.88
2018-06-23T03:34:19.674Z,9.90
2018-06-23T03:36:55.306Z,9.90
2018-06-23T03:39:31.158Z,9.85
2018-06-23T03:42:06.934Z,9.86
2018-06-23T03:44:42.732Z,9.91
2018-06-23T03:47:18.230Z,10.02
2018-06-23T03:49:54.024Z,10.00
2018-06-23T03:52:29.383Z,9.95
2018-06-23T03:55:05.215Z,9.94
2018-06-23T03:57:41.248Z,9.99
2018-06-23T04:00:16.942Z,10.06
2018-06-23T04:02:52.398Z,10.14
2018-06-23T04:05:27.856Z,10.24
2018-06-23T04:08:03.581Z,10.41
2018-06-23T04:10:39.360Z,10.56
2018-06-23T04:13:15.021Z,10.67
2018-06-23T04:15:51.181Z,10.73
2018-06-23T04:18:26.827Z,10.78
2018-06-23T04:21:02.448Z,10.87
2018-06-23T04:23:38.224Z,11.02
2018-06-23T04:26:13.883Z,11.23
2018-06-23T04:28:49.433Z,11.18
2018-06-23T04:31:25.265Z,10.94
2018-06-23T04:34:00.764Z,11.05
2018-06-23T04:36:36.697Z,11.18
2018-06-23T04:39:12.521Z,11.40
2018-06-23T04:41:48.469Z,11.60
2018-06-23T04:44:23.934Z,11.86
2018-06-23T04:46:59.543Z,11.97
2018-06-23T04:49:35.245Z,11.89
2018-06-23T04:52:10.854Z,11.73
2018-06-23T04:54:46.666Z,11.92
2018-06-23T04:57:22.327Z,12.15
2018-06-23T04:59:58.044Z,12.02
2018-06-23T05:02:33.873Z,12.07
2018-06-23T05:05:09.878Z,12.24
2018-06-23T05:07:45.402Z,12.20
2018-06-23T05:10:21.040Z,12.46
2018-06-23T05:12:56.616Z,12.38
2018-06-23T05:15:32.262Z,12.43
2018-06-23T05:18:07.918Z,12.47
2018-06-23T05:20:43.505Z,12.74
2018-06-23T05:23:19.057Z,12.91
2018-06-23T05:25:54.600Z,12.82
2018-06-23T05:28:30.200Z,12.93
2018-06-23T05:31:05.776Z,12.99
2018-06-23T05:33:41.318Z,13.12
2018-06-23T05:36:16.644Z,13.25
2018-06-23T05:38:51.852Z,12.71
2018-06-23T05:41:27.496Z,12.99
2018-06-23T05:44:03.218Z,12.93
2018-06-23T05:46:38.812Z,12.94
2018-06-23T05:49:14.334Z,13.11
2018-06-23T05:51:52.328Z,13.00
2018-06-23T05:54:27.966Z,12.98
2018-06-23T05:57:03.793Z,12.89
2018-06-23T05:59:39.764Z,13.18
2018-06-23T06:02:15.944Z,13.15
2018-06-23T06:04:51.992Z,13.29
2018-06-23T06:07:27.692Z,13.54
2018-06-23T06:10:03.609Z,13.21
2018-06-23T06:12:39.367Z,13.70
2018-06-23T06:15:14.983Z,14.09
2018-06-23T06:17:50.533Z,14.20
2018-06-23T06:20:26.354Z,13.75
2018-06-23T06:23:02.124Z,13.82
2018-06-23T06:25:37.688Z,13.78
2018-06-23T06:28:14.016Z,13.20
2018-06-23T06:30:49.552Z,13.50
2018-06-23T06:33:26.381Z,14.48
2018-06-23T06:36:01.850Z,14.84
2018-06-23T06:38:37.832Z,14.85
2018-06-23T06:41:13.396Z,14.94
2018-06-23T06:43:49.660Z,15.15
2018-06-23T06:46:25.382Z,15.20
2018-06-23T06:49:01.094Z,15.16
2018-06-23T06:51:36.748Z,13.93
2018-06-23T06:54:12.747Z,14.03
2018-06-23T06:56:49.136Z,14.67
2018-06-23T06:59:24.520Z,14.64
2018-06-23T07:02:00.170Z,14.15
2018-06-23T07:04:35.860Z,14.14
2018-06-23T07:07:11.766Z,13.90
2018-06-23T07:09:47.434Z,14.19
2018-06-23T07:12:22.906Z,14.45
2018-06-23T07:14:58.401Z,15.14
2018-06-23T07:17:34.215Z,15.83
2018-06-23T07:20:10.168Z,16.65
2018-06-23T07:22:45.765Z,16.41
2018-06-23T07:25:21.532Z,16.35
2018-06-23T07:27:57.291Z,16.72
2018-06-23T07:30:33.931Z,16.47
2018-06-23T07:33:09.746Z,16.03
2018-06-23T07:35:45.439Z,15.35
2018-06-23T07:38:21.018Z,14.94
2018-06-23T07:40:56.986Z,16.10
2018-06-23T07:43:32.797Z,17.28
2018-06-23T07:46:08.594Z,16.44
2018-06-23T07:48:44.668Z,15.94
2018-06-23T07:51:20.203Z,16.24
2018-06-23T07:53:56.533Z,16.49
2018-06-23T07:56:32.859Z,15.47
2018-06-23T07:59:08.386Z,15.37
2018-06-23T08:01:44.060Z,16.30
2018-06-23T08:04:19.423Z,17.29
2018-06-23T08:06:54.902Z,18.41
2018-06-23T08:09:30.878Z,18.69
2018-06-23T08:12:06.657Z,18.08
2018-06-23T08:14:42.398Z,16.97
2018-06-23T08:17:18.232Z,17.13
2018-06-23T08:19:53.776Z,17.81
2018-06-23T08:22:29.554Z,18.59
2018-06-23T08:25:05.436Z,18.12
2018-06-23T08:27:41.000Z,17.12
2018-06-23T08:30:16.696Z,16.40
2018-06-23T08:32:52.389Z,16.03
2018-06-23T08:35:28.143Z,16.13
2018-06-23T08:38:04.163Z,15.96
2018-06-23T08:40:40.069Z,16.25
2018-06-23T08:43:16.003Z,16.70
2018-06-23T08:45:51.511Z,16.79
2018-06-23T08:48:26.995Z,16.87
2018-06-23T08:51:02.743Z,16.90
2018-06-23T08:53:41.433Z,16.36
2018-06-23T08:56:20.909Z,16.16
2018-06-23T08:58:57.132Z,16.26
2018-06-23T09:01:32.678Z,18.12
2018-06-23T09:04:08.972Z,18.86
2018-06-23T09:06:44.505Z,19.36
2018-06-23T09:09:20.182Z,20.56
2018-06-23T09:11:55.875Z,20.17
2018-06-23T09:14:31.772Z,19.35
2018-06-23T09:17:07.726Z,18.87
2018-06-23T09:19:43.339Z,18.82
2018-06-23T09:22:18.765Z,19.22
2018-06-23T09:24:54.269Z,21.65
2018-06-23T09:27:30.145Z,22.33
2018-06-23T09:30:06.385Z,22.84
2018-06-23T09:32:41.781Z,20.54
2018-06-23T09:35:17.519Z,18.94
2018-06-23T09:37:53.295Z,19.97
2018-06-23T09:40:29.018Z,21.31
2018-06-23T09:43:04.606Z,22.68
2018-06-23T09:45:40.377Z,23.01
2018-06-23T09:48:16.220Z,23.30
2018-06-23T09:50:52.413Z,24.09
2018-06-23T09:53:28.271Z,25.14
2018-06-23T09:56:03.832Z,21.83
2018-06-23T09:58:39.429Z,21.90
2018-06-23T10:01:15.103Z,20.60
2018-06-23T10:03:50.687Z,22.54
2018-06-23T10:06:26.385Z,21.25
2018-06-23T10:09:02.293Z,22.12
2018-06-23T10:11:38.141Z,22.74
2018-06-23T10:14:13.753Z,20.63
2018-06-23T10:16:49.590Z,23.90
2018-06-23T10:19:25.422Z,22.47
2018-06-23T10:22:01.227Z,22.50
2018-06-23T10:24:36.887Z,25.18
2018-06-23T10:27:12.577Z,23.18
2018-06-23T10:29:48.191Z,25.00
2018-06-23T10:32:23.872Z,24.02
2018-06-23T10:34:59.719Z,22.60
2018-06-23T10:37:35.555Z,23.01
2018-06-23T10:40:10.994Z,24.47
2018-06-23T10:42:46.740Z,24.29
2018-06-23T10:45:22.736Z,23.54
2018-06-23T10:47:58.578Z,20.95
2018-06-23T10:50:34.474Z,21.57
2018-06-23T10:53:10.303Z,23.90
2018-06-23T10:55:46.311Z,24.64
2018-06-23T10:58:23.229Z,25.27
2018-06-23T11:00:58.949Z,25.52
2018-06-23T11:03:34.470Z,28.06
2018-06-23T11:06:10.178Z,25.59
2018-06-23T11:08:46.689Z,26.05
2018-06-23T11:11:22.379Z,25.76
2018-06-23T11:13:58.249Z,23.89
2018-06-23T11:16:33.899Z,21.84
2018-06-23T11:19:09.793Z,20.99
2018-06-23T11:21:45.556Z,21.45
2018-06-23T11:24:22.176Z,21.50
2018-06-23T11:26:58.068Z,21.81
2018-06-23T11:29:33.734Z,21.62
2018-06-23T11:32:09.342Z,22.57
2018-06-23T11:34:44.933Z,22.84
2018-06-23T11:37:20.596Z,20.62
2018-06-23T11:39:56.213Z,20.83
2018-06-23T11:42:32.018Z,23.24
2018-06-23T11:45:07.709Z,22.96
2018-06-23T11:47:43.222Z,22.32
2018-06-23T11:50:18.731Z,22.23
2018-06-23T11:52:54.784Z,22.80
2018-06-23T11:55:30.339Z,22.11
2018-06-23T11:58:10.019Z,21.77
2018-06-23T12:00:45.711Z,25.38
2018-06-23T12:03:21.557Z,27.50
2018-06-23T12:05:57.111Z,28.25
2018-06-23T12:08:32.976Z,28.82
2018-06-23T12:11:08.878Z,29.62
2018-06-23T12:13:44.691Z,28.82
2018-06-23T12:16:21.051Z,27.41
2018-06-23T12:18:56.852Z,23.84
2018-06-23T12:21:34.093Z,24.30
2018-06-23T12:24:10.968Z,23.06
2018-06-23T12:26:47.268Z,25.01
2018-06-23T12:29:23.560Z,26.58
2018-06-23T12:31:59.169Z,28.01
2018-06-23T12:34:35.375Z,30.04
2018-06-23T12:37:11.633Z,30.23
2018-06-23T12:39:47.510Z,29.81
2018-06-23T12:42:23.531Z,28.26
2018-06-23T12:44:59.501Z,29.58
2018-06-23T12:47:35.432Z,27.81
2018-06-23T12:50:11.426Z,26.11
2018-06-23T12:52:47.221Z,24.74
2018-06-23T12:55:23.118Z,26.42
2018-06-23T12:57:58.973Z,25.67
2018-06-23T13:00:34.527Z,23.41
2018-06-23T13:03:10.172Z,21.94
2018-06-23T13:05:46.018Z,21.79
2018-06-23T13:08:22.185Z,21.15
2018-06-23T13:10:57.849Z,19.88
2018-06-23T13:13:33.807Z,19.99
2018-06-23T13:16:09.953Z,19.98
2018-06-23T13:18:45.903Z,19.75
2018-06-23T13:21:22.186Z,20.16
2018-06-23T13:23:58.068Z,19.73
2018-06-23T13:26:33.767Z,18.88
2018-06-23T13:29:09.568Z,18.43
2018-06-23T13:31:45.173Z,18.49
2018-06-23T13:34:21.530Z,19.05
2018-06-23T13:36:57.116Z,19.73
2018-06-23T13:39:33.481Z,19.22
2018-06-23T13:42:09.460Z,18.65
2018-06-23T13:44:45.295Z,18.58
2018-06-23T13:47:20.990Z,18.62
2018-06-23T13:49:57.091Z,19.25
2018-06-23T13:52:33.278Z,19.94
2018-06-23T13:55:09.956Z,19.60
2018-06-23T13:57:45.723Z,19.92
2018-06-23T14:00:21.705Z,20.78
2018-06-23T14:02:57.642Z,21.25
2018-06-23T14:05:35.114Z,21.07
2018-06-23T14:08:11.187Z,19.63
2018-06-23T14:10:47.134Z,19.16
2018-06-23T14:13:22.674Z,19.08
2018-06-23T14:15:58.160Z,19.02
2018-06-23T14:18:33.735Z,19.49
2018-06-23T14:21:09.683Z,20.04
2018-06-23T14:23:45.360Z,20.55
2018-06-23T14:26:21.114Z,20.16
2018-06-23T14:28:57.036Z,20.22
2018-06-23T14:31:34.104Z,19.70
2018-06-23T14:34:09.720Z,18.89
2018-06-23T14:36:45.215Z,18.33
2018-06-23T14:39:20.753Z,17.83
2018-06-23T14:41:56.770Z,17.65
2018-06-23T14:44:33.613Z,17.96
2018-06-23T14:47:09.570Z,18.47
2018-06-23T14:49:45.190Z,19.33
2018-06-23T14:52:20.697Z,19.54
2018-06-23T14:54:56.485Z,19.87
2018-06-23T14:57:32.242Z,20.39
2018-06-23T15:00:08.000Z,20.20
2018-06-23T15:02:43.768Z,20.17
2018-06-23T15:05:19.411Z,20.22
2018-06-23T15:07:55.086Z,19.93
2018-06-23T15:10:41.837Z,20.26
2018-06-23T15:13:19.455Z,20.38
2018-06-23T15:15:55.389Z,20.46
2018-06-23T15:18:31.210Z,20.13
2018-06-23T15:21:07.436Z,20.66
2018-06-23T15:23:42.884Z,20.96
2018-06-23T15:26:18.327Z,20.13
2018-06-23T15:28:53.867Z,19.87
2018-06-23T15:31:29.633Z,19.04
2018-06-23T15:34:05.337Z,18.32
2018-06-23T15:36:40.616Z,18.73
2018-06-23T15:39:19.506Z,18.82
2018-06-23T15:41:55.131Z,19.06
2018-06-23T15:44:30.869Z,18.99
2018-06-23T15:47:06.225Z,18.71
2018-06-23T15:49:42.254Z,18.50
2018-06-23T15:52:17.732Z,18.24
2018-06-23T15:54:53.222Z,17.89
2018-06-23T15:57:31.960Z,18.01
2018-06-23T16:00:11.999Z,17.78
2018-06-23T16:02:51.999Z,17.73
2018-06-23T16:05:28.506Z,17.94
2018-06-23T16:08:06.766Z,18.06
2018-06-23T16:10:54.061Z,17.87
2018-06-23T16:13:37.819Z,17.36
2018-06-23T16:16:25.204Z,17.31
2018-06-23T16:19:05.020Z,17.51
2018-06-23T16:21:42.855Z,17.63
2018-06-23T16:24:22.559Z,17.65
2018-06-23T16:27:07.004Z,17.58
2018-06-23T16:29:55.155Z,17.32
2018-06-23T16:32:43.050Z,17.43
2018-06-23T16:35:25.639Z,17.55
2018-06-23T16:38:11.254Z,17.62
2018-06-23T16:40:54.471Z,17.95
2018-06-23T16:43:37.817Z,18.28
2018-06-23T16:46:21.853Z,18.20
2018-06-23T16:49:04.283Z,18.07
2018-06-23T16:51:48.255Z,18.20
2018-06-23T16:54:29.780Z,18.02
2018-06-23T16:57:26.651Z,17.83
2018-06-23T17:00:04.133Z,17.68
2018-06-23T17:05:36.279Z,17.72
2018-06-23T17:08:17.169Z,17.50
2018-06-23T17:10:53.716Z,17.32
2018-06-23T17:13:35.700Z,17.28
2018-06-23T17:16:20.713Z,16.96
2018-06-23T17:19:05.775Z,16.90
2018-06-23T17:21:49.755Z,16.67
2018-06-23T17:24:33.245Z,16.55
2018-06-23T17:30:17.978Z,16.37
2018-06-23T17:32:53.638Z,16.32
2018-06-23T17:35:35.855Z,16.35
2018-06-23T17:43:28.421Z,16.26
2018-06-23T17:46:04.340Z,16.25
2018-06-23T17:48:44.318Z,16.23
2018-06-23T17:51:31.037Z,15.99
2018-06-23T17:54:24.624Z,16.10
2018-06-23T17:57:00.495Z,16.07
2018-06-23T17:59:36.694Z,16.21
2018-06-23T18:02:12.531Z,16.31
2018-06-23T18:04:48.142Z,16.32
2018-06-23T18:07:25.976Z,16.29
2018-06-23T18:10:02.980Z,16.24
2018-06-23T18:12:38.501Z,15.99
2018-06-23T18:15:13.858Z,16.06
2018-06-23T18:17:49.390Z,16.11
2018-06-23T18:20:25.672Z,16.17
2018-06-23T18:23:01.366Z,16.11
2018-06-23T18:25:37.134Z,16.18
2018-06-23T18:28:13.529Z,16.04
2018-06-23T18:30:49.279Z,16.03
2018-06-23T18:33:24.830Z,15.96
2018-06-23T18:36:00.444Z,15.92
2018-06-23T18:38:36.139Z,15.86
2018-06-23T18:41:11.653Z,15.81
2018-06-23T18:43:48.977Z,15.76
2018-06-23T18:46:25.091Z,15.69
2018-06-23T18:49:03.984Z,15.62
2018-06-23T18:51:39.640Z,15.56
2018-06-23T18:54:15.826Z,15.59
2018-06-23T18:56:51.556Z,15.53
2018-06-23T18:59:27.534Z,15.53
2018-06-23T19:02:03.382Z,15.43
2018-06-23T19:04:39.197Z,15.36
2018-06-23T19:07:14.811Z,15.34
2018-06-23T19:09:50.483Z,15.31
2018-06-23T19:12:26.182Z,15.23
2018-06-23T19:15:01.669Z,15.17
2018-06-23T19:17:38.251Z,15.16
2018-06-23T19:20:13.850Z,15.10
2018-06-23T19:22:49.279Z,15.03
2018-06-23T19:25:24.738Z,14.96
2018-06-23T19:28:01.296Z,14.96
2018-06-23T19:30:37.321Z,14.92
2018-06-23T19:33:13.820Z,14.91
2018-06-23T19:35:50.175Z,14.77
2018-06-23T19:38:25.782Z,14.77
2018-06-23T19:41:01.327Z,14.76
2018-06-23T19:43:38.464Z,14.79
2018-06-23T19:46:14.937Z,14.80
2018-06-23T19:48:50.531Z,14.82
2018-06-23T19:51:26.915Z,14.80
2018-06-23T19:54:04.399Z,14.81
2018-06-23T19:56:40.198Z,14.86
2018-06-23T19:59:25.366Z,14.85
2018-06-23T20:02:00.755Z,14.88
2018-06-23T20:07:39.764Z,14.72
2018-06-23T20:10:17.400Z,14.68
2018-06-23T20:12:58.543Z,14.67
2018-06-23T20:15:35.057Z,14.65
2018-06-23T20:18:10.569Z,14.66
2018-06-23T20:20:46.326Z,14.66
2018-06-23T20:23:21.987Z,14.70
2018-06-23T20:25:58.344Z,14.71
2018-06-23T20:28:35.845Z,14.70
2018-06-23T20:31:11.477Z,14.67
2018-06-23T20:33:58.749Z,14.66
2018-06-23T20:36:48.091Z,14.66
2018-06-23T20:39:23.549Z,14.66
2018-06-23T20:41:58.963Z,14.68
2018-06-23T20:44:34.509Z,14.65
2018-06-23T20:47:10.919Z,14.65
2018-06-23T20:49:46.373Z,14.63
2018-06-23T20:52:21.969Z,14.66
2018-06-23T20:54:57.250Z,14.61
2018-06-23T20:57:32.827Z,14.64
2018-06-23T21:00:08.515Z,14.57
2018-06-23T21:02:45.044Z,14.50
2018-06-23T21:05:20.609Z,14.54
2018-06-23T21:07:56.232Z,14.45
2018-06-23T21:10:46.143Z,14.36
2018-06-23T21:13:21.850Z,14.37
2018-06-23T21:15:57.640Z,14.27
2018-06-23T21:18:33.114Z,14.21
2018-06-23T21:21:08.871Z,14.24
2018-06-23T21:23:44.394Z,14.34
2018-06-23T21:26:19.852Z,14.22
2018-06-23T21:28:55.542Z,14.28
2018-06-23T21:31:30.963Z,14.30
2018-06-23T21:34:06.767Z,14.31
2018-06-23T21:36:42.229Z,14.30
2018-06-23T21:39:17.655Z,14.19
2018-06-23T21:41:53.078Z,14.17
2018-06-23T21:44:29.293Z,14.19
2018-06-23T21:47:04.950Z,14.12
2018-06-23T21:49:40.730Z,14.13
2018-06-23T21:52:16.713Z,14.05
2018-06-23T21:54:52.254Z,14.01
2018-06-23T21:57:27.779Z,13.95
2018-06-23T22:00:03.921Z,13.91
2018-06-23T22:02:39.610Z,13.78
2018-06-23T22:05:15.174Z,13.63
2018-06-23T22:07:50.833Z,13.58
2018-06-23T22:10:26.988Z,13.56
2018-06-23T22:13:02.798Z,13.53
2018-06-23T22:15:38.273Z,13.63
2018-06-23T22:18:14.027Z,13.56
2018-06-23T22:20:49.521Z,13.48
2018-06-23T22:23:25.492Z,13.51
2018-06-23T22:26:01.198Z,13.48
2018-06-23T22:28:36.855Z,13.44
2018-06-23T22:31:12.693Z,13.38
2018-06-23T22:33:48.392Z,13.34
2018-06-23T22:36:24.250Z,13.46
2018-06-23T22:38:59.765Z,13.45
2018-06-23T22:41:35.541Z,13.48
2018-06-23T22:44:11.038Z,13.42
2018-06-23T22:46:47.097Z,13.39
2018-06-23T22:49:22.642Z,13.36
2018-06-23T22:51:58.602Z,13.33
2018-06-23T22:54:34.750Z,13.28
2018-06-23T22:57:10.509Z,13.29
2018-06-23T22:59:46.580Z,13.34
2018-06-23T23:02:22.506Z,13.34
2018-06-23T23:05:01.288Z,13.39
2018-06-23T23:07:37.134Z,13.22
2018-06-23T23:10:12.881Z,13.20
2018-06-23T23:12:48.572Z,13.11
2018-06-23T23:15:24.464Z,13.16
2018-06-23T23:18:00.248Z,13.34
2018-06-23T23:20:36.077Z,13.28
2018-06-23T23:23:13.825Z,13.34
2018-06-23T23:25:49.879Z,13.43
2018-06-23T23:28:25.549Z,13.42
2018-06-23T23:31:01.091Z,13.42
2018-06-23T23:33:36.485Z,13.43
2018-06-23T23:36:12.390Z,13.46
2018-06-23T23:38:48.164Z,13.43
2018-06-23T23:41:23.790Z,13.41
2018-06-23T23:43:59.463Z,13.45
2018-06-23T23:46:34.997Z,13.50
2018-06-23T23:49:10.803Z,13.53
2018-06-23T23:51:46.419Z,13.46
2018-06-23T23:54:22.106Z,13.43
2018-06-23T23:56:57.769Z,13.44
2018-06-23T23:59:33.338Z,13.41
